Time;durP1;ratioP1;P1;durP2;ratioP2;P2;SDS_P1;SDS_P2;PMS_P1;PMS_P2;Temp;Humidity;BMP_temperature;BMP_pressure;BME280_temperature;BME280_humidity;BME280_pressure;Samples;Min_cycle;Max_cycle;Signal;HPM_P1;HPM_P2
2021/12/24 00:00:48;;;;;;;17.70;9.80;;;6.50;99.90;;;;;;5046105;28;20462;-74
2021/12/24 00:03:14;;;;;;;16.70;10.60;;;6.50;99.90;;;;;;5025040;28;20602;-74
2021/12/24 00:05:40;;;;;;;21.03;11.80;;;6.50;99.90;;;;;;5014968;28;20290;-74
2021/12/24 00:08:07;;;;;;;20.57;12.23;;;6.50;99.90;;;;;;5018583;28;20467;-73
2021/12/24 00:10:33;;;;;;;25.83;12.20;;;6.40;99.90;;;;;;5018196;28;20224;-74
2021/12/24 00:13:04;;;;;;;23.67;12.37;;;6.50;99.90;;;;;;5030438;28;20512;-73
2021/12/24 00:37:00;;;;;;;11.97;7.43;;;6.50;99.90;;;;;;5027817;28;20451;-73
2021/12/24 00:39:25;;;;;;;16.50;8.93;;;6.50;99.90;;;;;;5027723;28;20463;-74
2021/12/24 00:41:51;;;;;;;9.60;6.83;;;6.50;99.90;;;;;;5007189;28;20275;-74
2021/12/24 00:44:17;;;;;;;9.47;6.77;;;6.50;99.90;;;;;;5009245;28;20603;-74
2021/12/24 00:46:42;;;;;;;10.10;6.90;;;6.50;99.90;;;;;;5007304;28;20221;-74
2021/12/24 00:49:08;;;;;;;11.30;7.20;;;6.50;99.90;;;;;;5009957;28;20279;-73
2021/12/24 00:52:06;;;;;;;13.10;8.37;;;6.50;99.90;;;;;;5024198;28;20299;-73
2021/12/24 00:57:18;;;;;;;9.40;6.90;;;6.50;99.90;;;;;;5026903;28;20513;-74
2021/12/24 00:59:44;;;;;;;10.57;7.37;;;6.50;99.90;;;;;;5007332;28;20455;-74
2021/12/24 01:02:10;;;;;;;13.00;8.53;;;6.50;99.90;;;;;;5008828;28;20458;-74
2021/12/24 01:04:36;;;;;;;12.47;6.97;;;6.50;99.90;;;;;;5006938;28;20581;-73
2021/12/24 01:07:03;;;;;;;10.80;7.07;;;6.50;99.90;;;;;;5025436;28;20454;-74
2021/12/24 01:09:28;;;;;;;14.33;8.43;;;6.50;99.90;;;;;;5011360;28;20200;-73
2021/12/24 01:11:54;;;;;;;12.10;8.17;;;6.50;99.90;;;;;;5007131;28;20450;-74
2021/12/24 01:14:22;;;;;;;12.40;6.80;;;6.50;99.90;;;;;;5009457;28;20225;-74
2021/12/24 01:17:04;;;;;;;12.37;7.90;;;6.50;99.90;;;;;;5011012;28;20585;-74
2021/12/24 01:19:29;;;;;;;10.03;7.00;;;6.50;99.90;;;;;;5027353;28;20451;-74
2021/12/24 01:24:42;;;;;;;11.40;7.20;;;6.40;99.90;;;;;;5005802;28;20460;-73
2021/12/24 01:27:27;;;;;;;11.80;7.10;;;6.50;99.90;;;;;;4973891;28;21042;-73
2021/12/24 01:30:04;;;;;;;9.80;6.20;;;6.50;99.90;;;;;;4999277;28;20455;-74
2021/12/24 01:38:21;;;;;;;7.10;5.60;;;6.50;99.90;;;;;;5009497;28;20451;-74
2021/12/24 01:43:24;;;;;;;9.40;6.40;;;6.50;99.90;;;;;;5024874;28;20508;-73
2021/12/24 01:45:52;;;;;;;16.93;6.03;;;6.60;99.90;;;;;;5007232;28;20471;-72
2021/12/24 01:48:18;;;;;;;12.63;6.70;;;6.60;99.90;;;;;;5026200;28;20836;-74
2021/12/24 01:50:46;;;;;;;9.60;6.47;;;6.60;99.90;;;;;;5012900;28;20459;-74
2021/12/24 01:53:15;;;;;;;12.10;6.60;;;6.60;99.90;;;;;;5020843;28;20493;-74
2021/12/24 01:55:45;;;;;;;6.90;5.87;;;6.70;99.90;;;;;;5007146;28;21014;-74
2021/12/24 01:58:11;;;;;;;9.60;6.60;;;6.70;99.90;;;;;;5009494;28;20974;-74
2021/12/24 02:00:44;;;;;;;10.53;7.47;;;6.70;99.90;;;;;;5006670;28;20961;-74
2021/12/24 02:03:11;;;;;;;10.47;6.37;;;6.70;99.90;;;;;;5024686;28;20839;-74
2021/12/24 02:05:38;;;;;;;11.27;6.50;;;6.70;99.90;;;;;;5006105;28;20471;-73
2021/12/24 02:08:05;;;;;;;8.13;5.80;;;6.70;99.90;;;;;;5009095;28;20451;-74
2021/12/24 02:10:31;;;;;;;9.50;6.47;;;6.70;99.90;;;;;;5037519;28;20473;-74
2021/12/24 02:12:57;;;;;;;10.37;6.27;;;6.70;99.90;;;;;;5032551;28;20454;-74
2021/12/24 02:28:17;;;;;;;11.03;6.80;;;6.80;99.90;;;;;;5032013;28;20446;-74
2021/12/24 02:29:16;;;;;;;12.33;6.60;;;6.90;99.90;;;;;;5039409;28;20455;-73
2021/12/24 02:31:43;;;;;;;15.93;7.20;;;6.90;99.90;;;;;;5009670;28;20865;-74
2021/12/24 02:34:09;;;;;;;10.10;5.87;;;7.00;99.90;;;;;;5012357;28;20225;-74
2021/12/24 02:36:35;;;;;;;10.23;6.13;;;7.00;99.90;;;;;;5010199;28;20969;-75
2021/12/24 02:39:02;;;;;;;7.57;5.90;;;7.00;99.90;;;;;;5012652;28;20490;-74
2021/12/24 02:41:27;;;;;;;9.03;6.10;;;7.10;99.90;;;;;;5029159;28;20560;-73
2021/12/24 02:43:53;;;;;;;10.67;6.37;;;7.10;99.90;;;;;;5022875;28;20802;-74
2021/12/24 02:46:32;;;;;;;6.33;5.00;;;7.10;99.90;;;;;;4992636;28;20240;-74
2021/12/24 02:49:08;;;;;;;10.50;5.70;;;7.20;99.90;;;;;;5029625;28;21025;-74
2021/12/24 02:54:20;;;;;;;7.77;5.43;;;7.20;99.90;;;;;;5030110;28;20994;-74
2021/12/24 02:56:57;;;;;;;5.97;4.80;;;7.30;99.90;;;;;;5009814;28;20476;-74
2021/12/24 02:59:26;;;;;;;6.43;5.00;;;7.30;99.90;;;;;;5012417;28;20459;-75
2021/12/24 03:01:55;;;;;;;10.97;5.37;;;7.30;99.90;;;;;;5010285;28;20459;-74
2021/12/24 03:04:21;;;;;;;8.27;5.47;;;7.30;99.90;;;;;;5028986;28;20459;-74
2021/12/24 03:06:50;;;;;;;11.37;5.50;;;7.40;99.90;;;;;;5009385;28;20460;-74
2021/12/24 03:09:18;;;;;;;6.73;4.53;;;7.40;99.90;;;;;;5011561;28;20494;-74
2021/12/24 03:11:45;;;;;;;8.07;5.00;;;7.40;99.90;;;;;;5011231;28;21046;-74
2021/12/24 03:14:14;;;;;;;7.30;4.90;;;7.40;99.90;;;;;;5007181;28;20472;-75
2021/12/24 03:16:44;;;;;;;7.23;4.97;;;7.40;99.90;;;;;;4992648;28;20533;-74
2021/12/24 03:19:11;;;;;;;6.30;5.20;;;7.40;99.90;;;;;;5014569;28;20454;-74
2021/12/24 03:21:49;;;;;;;9.13;5.10;;;7.40;99.90;;;;;;5008547;28;20456;-74
2021/12/24 03:26:46;;;;;;;9.30;5.20;;;7.40;99.90;;;;;;5026439;28;20914;-74
2021/12/24 03:29:14;;;;;;;8.00;5.23;;;7.50;99.90;;;;;;5012066;28;20463;-74
2021/12/24 03:31:41;;;;;;;6.00;4.60;;;7.50;99.90;;;;;;5009541;28;20517;-74
2021/12/24 03:34:09;;;;;;;8.57;4.80;;;7.50;99.90;;;;;;5010977;28;20853;-74
2021/12/24 03:36:35;;;;;;;6.60;4.97;;;7.50;99.90;;;;;;5009413;28;20473;-73
2021/12/24 03:39:06;;;;;;;7.30;4.60;;;7.50;99.90;;;;;;5003911;28;20459;-74
2021/12/24 03:41:32;;;;;;;5.87;4.63;;;7.50;99.90;;;;;;5022876;28;21034;-75
2021/12/24 03:43:58;;;;;;;6.20;4.20;;;7.50;99.90;;;;;;5021605;28;20451;-74
2021/12/24 03:46:34;;;;;;;7.57;5.10;;;7.50;99.90;;;;;;5011055;28;20471;-74
2021/12/24 03:49:05;;;;;;;9.00;5.30;;;7.50;99.90;;;;;;5008754;28;20216;-74
2021/12/24 03:56:42;;;;;;;6.70;4.83;;;7.50;99.90;;;;;;5024985;28;20463;-74
2021/12/24 03:59:19;;;;;;;6.87;5.40;;;7.50;99.90;;;;;;4996679;28;20546;-74
2021/12/24 04:02:11;;;;;;;9.10;5.83;;;7.50;99.90;;;;;;5019707;28;20467;-74
2021/12/24 04:04:36;;;;;;;9.00;5.30;;;7.50;99.90;;;;;;5026254;28;20475;-74
2021/12/24 04:07:21;;;;;;;10.00;5.90;;;7.50;99.90;;;;;;5028362;28;20215;-74
2021/12/24 04:10:49;;;;;;;9.10;5.30;;;7.50;99.90;;;;;;5027592;28;20530;-74
2021/12/24 04:13:16;;;;;;;10.27;4.90;;;7.40;99.90;;;;;;5027542;28;20522;-74
2021/12/24 04:15:42;;;;;;;14.97;6.47;;;7.40;99.90;;;;;;5008800;28;20530;-75
2021/12/24 04:18:23;;;;;;;9.47;6.30;;;7.40;99.90;;;;;;5010982;28;20456;-75
2021/12/24 04:26:18;;;;;;;7.80;5.40;;;7.40;99.90;;;;;;5027315;28;20487;-75
2021/12/24 04:28:44;;;;;;;9.40;5.33;;;7.40;99.90;;;;;;5008064;28;21002;-74
2021/12/24 04:31:10;;;;;;;10.90;5.50;;;7.40;99.90;;;;;;5010575;28;20456;-74
2021/12/24 04:33:38;;;;;;;9.00;5.30;;;7.40;99.90;;;;;;5009065;28;20635;-74
2021/12/24 05:03:34;;;;;;;10.50;5.77;;;7.40;99.90;;;;;;5025850;28;20473;-75
2021/12/24 05:08:41;;;;;;;9.23;5.90;;;7.40;99.90;;;;;;5023265;28;20451;-75
2021/12/24 05:11:10;;;;;;;8.60;5.70;;;7.40;99.90;;;;;;5025631;28;20482;-74
2021/12/24 05:13:38;;;;;;;10.93;6.47;;;7.40;99.90;;;;;;5007184;28;20882;-74
2021/12/24 05:22:05;;;;;;;6.90;5.07;;;7.40;99.90;;;;;;5007550;28;20482;-74
2021/12/24 05:24:33;;;;;;;9.30;6.67;;;7.40;99.90;;;;;;5012202;28;20501;-74
2021/12/24 05:27:03;;;;;;;7.80;5.07;;;7.40;99.90;;;;;;5013033;28;20518;-74
2021/12/24 05:29:31;;;;;;;11.33;7.00;;;7.40;99.90;;;;;;5030805;28;20216;-75
2021/12/24 05:31:58;;;;;;;14.50;6.67;;;7.40;99.90;;;;;;5028623;28;20447;-75
2021/12/24 05:34:24;;;;;;;14.90;6.67;;;7.40;99.90;;;;;;5012841;28;20451;-74
2021/12/24 05:36:50;;;;;;;9.57;6.20;;;7.40;99.90;;;;;;5012198;28;20459;-75
2021/12/24 05:39:18;;;;;;;12.93;5.73;;;7.40;99.90;;;;;;5012528;28;20455;-75
2021/12/24 05:41:45;;;;;;;19.03;7.07;;;7.40;99.90;;;;;;5011782;28;20447;-75
2021/12/24 05:44:15;;;;;;;11.07;6.83;;;7.40;99.90;;;;;;5011169;28;20451;-75
2021/12/24 05:46:45;;;;;;;14.57;7.93;;;7.40;99.90;;;;;;5016327;28;20986;-74
2021/12/24 05:49:41;;;;;;;13.03;8.13;;;7.40;99.90;;;;;;4999617;28;20486;-75
2021/12/24 05:52:26;;;;;;;11.60;7.07;;;7.40;99.90;;;;;;5028711;28;20536;-75
2021/12/24 05:55:00;;;;;;;15.07;7.90;;;7.50;99.90;;;;;;5012407;28;20818;-75
2021/12/24 05:57:28;;;;;;;12.77;7.30;;;7.50;99.90;;;;;;5012197;28;20800;-75
2021/12/24 05:59:55;;;;;;;19.00;8.77;;;7.50;99.90;;;;;;5011912;28;20540;-75
2021/12/24 06:02:20;;;;;;;13.33;7.57;;;7.50;99.90;;;;;;5011775;28;20594;-74
2021/12/24 06:04:46;;;;;;;13.50;8.93;;;7.50;99.90;;;;;;5011453;28;20224;-74
2021/12/24 06:07:12;;;;;;;12.50;8.00;;;7.50;99.90;;;;;;5012148;28;20267;-74
2021/12/24 06:09:37;;;;;;;15.33;9.20;;;7.50;99.90;;;;;;5012040;28;20655;-74
2021/12/24 06:12:03;;;;;;;15.30;7.90;;;7.50;99.90;;;;;;4996087;28;20295;-74
2021/12/24 06:14:29;;;;;;;14.63;8.33;;;7.50;99.90;;;;;;5012031;28;20228;-75
2021/12/24 06:17:03;;;;;;;10.63;6.97;;;7.50;99.90;;;;;;5011456;28;20497;-74
2021/12/24 06:19:29;;;;;;;15.63;8.60;;;7.50;99.90;;;;;;5029646;28;20238;-73
2021/12/24 06:21:58;;;;;;;10.03;7.47;;;7.50;99.90;;;;;;5006870;28;20443;-75
2021/12/24 06:24:24;;;;;;;11.20;8.10;;;7.50;99.90;;;;;;5012087;28;20512;-74
2021/12/24 06:26:50;;;;;;;11.07;7.63;;;7.50;99.90;;;;;;5011338;28;20538;-75
2021/12/24 06:29:17;;;;;;;9.77;6.60;;;7.50;99.90;;;;;;5012420;28;20696;-75
2021/12/24 06:31:43;;;;;;;12.90;7.50;;;7.50;99.90;;;;;;5011063;28;20455;-74
2021/12/24 06:34:10;;;;;;;12.43;7.93;;;7.50;99.90;;;;;;5012728;28;20470;-75
2021/12/24 06:36:40;;;;;;;11.07;6.33;;;7.50;99.90;;;;;;5010893;28;20542;-74
2021/12/24 06:39:06;;;;;;;11.57;7.60;;;7.50;99.90;;;;;;5030041;28;20443;-74
2021/12/24 06:41:33;;;;;;;11.50;6.43;;;7.50;99.90;;;;;;5029070;28;20483;-75
2021/12/24 06:43:59;;;;;;;9.23;6.00;;;7.50;99.90;;;;;;5011858;28;20455;-75
2021/12/24 06:46:25;;;;;;;10.80;6.60;;;7.60;99.90;;;;;;5010643;28;20548;-74
2021/12/24 06:48:56;;;;;;;10.13;6.60;;;7.60;99.90;;;;;;5010685;28;20585;-75
2021/12/24 06:51:22;;;;;;;11.47;6.20;;;7.60;99.90;;;;;;5011786;28;20231;-74
2021/12/24 06:53:48;;;;;;;9.87;7.17;;;7.60;99.90;;;;;;5011635;28;21036;-75
2021/12/24 06:56:14;;;;;;;13.37;7.90;;;7.60;99.90;;;;;;5014642;28;20859;-75
2021/12/24 06:58:43;;;;;;;10.13;6.67;;;7.60;99.90;;;;;;5014380;28;20463;-75
2021/12/24 07:01:08;;;;;;;10.53;6.40;;;7.60;99.90;;;;;;5015368;28;20454;-74
2021/12/24 07:03:34;;;;;;;9.37;6.97;;;7.60;99.90;;;;;;5014781;28;20227;-75
2021/12/24 07:06:00;;;;;;;11.40;7.10;;;7.50;99.90;;;;;;5032519;28;20228;-75
2021/12/24 07:08:26;;;;;;;14.27;7.97;;;7.50;99.90;;;;;;5033056;28;20298;-75
2021/12/24 07:10:52;;;;;;;11.30;7.20;;;7.50;99.90;;;;;;5026781;28;20220;-75
2021/12/24 07:13:18;;;;;;;10.60;6.03;;;7.50;99.90;;;;;;5052699;28;20461;-75
2021/12/24 07:15:44;;;;;;;13.50;7.10;;;7.50;99.90;;;;;;5040894;28;20228;-75
2021/12/24 07:18:10;;;;;;;9.20;5.80;;;7.50;99.90;;;;;;5015594;28;20462;-74
2021/12/24 07:20:37;;;;;;;11.37;6.90;;;7.50;99.90;;;;;;5014893;28;20227;-74
2021/12/24 07:23:04;;;;;;;7.67;5.57;;;7.50;99.90;;;;;;5015265;28;20225;-72
2021/12/24 07:25:30;;;;;;;7.83;5.50;;;7.50;99.90;;;;;;5014179;28;20842;-74
2021/12/24 07:27:56;;;;;;;7.13;5.33;;;7.50;99.90;;;;;;5029430;28;20455;-73
2021/12/24 07:30:22;;;;;;;9.47;6.30;;;7.50;99.90;;;;;;5015111;28;20529;-75
2021/12/24 07:32:48;;;;;;;8.90;5.80;;;7.50;99.90;;;;;;5013467;28;20224;-75
2021/12/24 07:35:13;;;;;;;8.73;6.20;;;7.50;99.90;;;;;;5031368;28;20712;-74
2021/12/24 07:37:41;;;;;;;6.93;5.40;;;7.50;99.90;;;;;;5013767;28;20466;-74
2021/12/24 07:40:07;;;;;;;8.50;5.57;;;7.50;99.90;;;;;;5031407;28;20282;-74
2021/12/24 07:42:33;;;;;;;9.80;5.77;;;7.50;99.90;;;;;;5031660;28;20542;-74
2021/12/24 07:44:59;;;;;;;9.50;6.07;;;7.50;99.90;;;;;;5013549;28;20459;-75
2021/12/24 07:47:32;;;;;;;8.47;5.43;;;7.50;99.90;;;;;;5014664;28;20455;-75
2021/12/24 07:50:02;;;;;;;9.10;5.40;;;7.60;99.90;;;;;;5027315;28;20278;-73
2021/12/24 07:52:28;;;;;;;8.80;5.60;;;7.50;99.90;;;;;;5011911;28;20467;-74
2021/12/24 07:54:55;;;;;;;8.50;5.50;;;7.60;99.90;;;;;;5013261;28;20451;-74
2021/12/24 07:57:22;;;;;;;6.80;5.10;;;7.60;99.90;;;;;;5032254;28;20459;-75
2021/12/24 07:59:48;;;;;;;8.40;5.40;;;7.60;99.90;;;;;;5031672;28;20451;-75
2021/12/24 08:02:26;;;;;;;8.00;5.97;;;7.60;99.90;;;;;;5013574;28;20831;-75
2021/12/24 08:04:53;;;;;;;9.30;6.17;;;7.60;99.90;;;;;;5010744;28;20470;-74
2021/12/24 08:07:20;;;;;;;10.93;7.13;;;7.60;99.90;;;;;;5029070;28;20524;-75
2021/12/24 08:09:50;;;;;;;12.67;7.80;;;7.60;99.90;;;;;;5032647;28;20442;-74
2021/12/24 08:12:16;;;;;;;12.17;8.70;;;7.60;99.90;;;;;;5031945;28;20454;-75
2021/12/24 08:14:43;;;;;;;13.53;9.07;;;7.60;99.90;;;;;;5030979;28;20486;-74
2021/12/24 08:17:09;;;;;;;14.90;10.00;;;7.60;99.90;;;;;;5013433;28;20466;-74
2021/12/24 08:19:35;;;;;;;19.83;10.63;;;7.60;99.90;;;;;;5030893;28;20455;-75
2021/12/24 08:22:01;;;;;;;14.53;9.97;;;7.60;99.90;;;;;;5013542;28;20459;-74
2021/12/24 08:24:27;;;;;;;16.00;10.00;;;7.60;99.90;;;;;;4997410;28;20228;-75
2021/12/24 08:26:53;;;;;;;20.10;11.00;;;7.60;99.90;;;;;;5029481;28;20490;-75
2021/12/24 08:29:21;;;;;;;15.40;9.40;;;7.60;99.90;;;;;;5030075;28;20479;-74
2021/12/24 08:31:48;;;;;;;13.70;8.50;;;7.60;99.90;;;;;;5012504;28;20311;-75
2021/12/24 08:34:16;;;;;;;15.40;8.30;;;7.60;99.90;;;;;;5013681;28;20494;-75
2021/12/24 08:36:42;;;;;;;15.47;8.90;;;7.60;99.90;;;;;;5029592;28;20517;-75
2021/12/24 08:39:08;;;;;;;15.90;9.30;;;7.60;99.90;;;;;;5013445;28;20455;-74
2021/12/24 08:41:34;;;;;;;18.13;9.93;;;7.60;99.90;;;;;;5030237;28;20220;-75
2021/12/24 08:43:59;;;;;;;15.47;9.80;;;7.60;99.90;;;;;;5012772;28;20303;-75
2021/12/24 08:46:25;;;;;;;13.90;8.83;;;7.60;99.90;;;;;;5030593;28;20243;-75
2021/12/24 08:48:51;;;;;;;21.60;10.03;;;7.60;99.90;;;;;;5029376;28;20315;-75
2021/12/24 08:51:17;;;;;;;24.70;12.20;;;7.60;99.90;;;;;;5013484;28;20235;-75
2021/12/24 08:53:42;;;;;;;25.27;13.53;;;7.60;99.90;;;;;;5012653;28;20235;-75
2021/12/24 08:56:08;;;;;;;28.47;13.70;;;7.60;99.90;;;;;;5013595;28;20228;-75
2021/12/24 08:58:34;;;;;;;31.97;16.20;;;7.60;99.90;;;;;;4996182;28;20236;-76
2021/12/24 09:01:00;;;;;;;37.13;17.50;;;7.60;99.90;;;;;;5021131;28;20300;-73
2021/12/24 09:03:26;;;;;;;33.43;16.03;;;7.60;99.90;;;;;;5012356;28;20220;-75
2021/12/24 09:05:51;;;;;;;26.67;15.10;;;7.60;99.90;;;;;;5033380;28;20520;-75
2021/12/24 09:08:17;;;;;;;23.83;12.40;;;7.70;99.90;;;;;;5012977;28;20320;-75
2021/12/24 09:10:43;;;;;;;20.53;11.10;;;7.70;99.90;;;;;;5015034;28;20259;-75
2021/12/24 09:13:09;;;;;;;17.77;11.93;;;7.70;99.90;;;;;;5030329;28;20225;-74
2021/12/24 09:15:35;;;;;;;16.60;8.07;;;7.70;99.90;;;;;;5012679;28;20228;-74
2021/12/24 09:18:03;;;;;;;11.10;6.90;;;7.70;99.90;;;;;;5012531;28;20451;-74
2021/12/24 09:20:38;;;;;;;9.00;5.90;;;7.70;99.90;;;;;;5013110;28;20225;-75
2021/12/24 09:23:05;;;;;;;9.97;5.60;;;7.70;99.90;;;;;;5012804;28;20530;-74
2021/12/24 09:25:32;;;;;;;10.30;6.80;;;7.70;99.90;;;;;;5012602;28;20478;-74
2021/12/24 09:27:58;;;;;;;9.50;6.20;;;7.70;99.90;;;;;;5029638;28;20450;-74
2021/12/24 09:30:25;;;;;;;8.77;5.63;;;7.80;99.90;;;;;;5013037;28;20459;-74
2021/12/24 09:32:51;;;;;;;7.00;5.40;;;7.80;99.90;;;;;;5012006;28;20447;-74
2021/12/24 09:35:18;;;;;;;7.70;4.30;;;7.80;99.90;;;;;;5012613;28;20463;-74
2021/12/24 09:37:44;;;;;;;8.43;4.90;;;7.80;99.90;;;;;;5010780;28;20447;-74
2021/12/24 09:40:12;;;;;;;6.20;4.00;;;7.90;99.90;;;;;;5012833;28;20509;-74
2021/12/24 09:42:39;;;;;;;7.20;5.00;;;7.90;99.90;;;;;;5029329;28;20306;-74
2021/12/24 09:45:06;;;;;;;9.83;5.30;;;7.90;99.90;;;;;;5011531;28;20479;-74
2021/12/24 09:47:32;;;;;;;6.40;5.20;;;7.90;99.90;;;;;;5029615;28;20979;-73
2021/12/24 09:49:58;;;;;;;10.33;6.00;;;7.90;99.90;;;;;;5017254;28;20513;-74
2021/12/24 09:52:24;;;;;;;7.00;5.10;;;7.90;99.90;;;;;;5012339;28;20213;-74
2021/12/24 09:54:50;;;;;;;7.63;4.93;;;8.00;99.90;;;;;;4995412;28;20229;-74
2021/12/24 09:57:16;;;;;;;8.23;4.60;;;8.00;99.90;;;;;;5030709;28;20632;-75
2021/12/24 09:59:42;;;;;;;6.57;4.77;;;7.90;99.90;;;;;;5029470;28;20463;-74
2021/12/24 10:02:14;;;;;;;6.33;4.43;;;7.90;99.90;;;;;;5014794;28;20449;-74
2021/12/24 10:04:41;;;;;;;5.63;4.30;;;8.00;99.90;;;;;;5029507;28;20663;-74
2021/12/24 10:07:10;;;;;;;4.93;4.13;;;7.90;99.90;;;;;;5029880;28;20468;-74
2021/12/24 10:09:49;;;;;;;7.07;5.43;;;8.00;99.90;;;;;;5009993;28;20460;-75
2021/12/24 10:12:23;;;;;;;5.83;4.53;;;8.00;99.90;;;;;;5028641;28;20513;-74
2021/12/24 10:15:07;;;;;;;7.27;4.77;;;8.00;99.90;;;;;;5027176;28;20497;-75
2021/12/24 10:17:35;;;;;;;8.80;5.37;;;8.00;99.90;;;;;;5028424;28;20464;-76
2021/12/24 10:20:15;;;;;;;7.17;5.27;;;8.00;99.90;;;;;;5008517;28;20444;-73
2021/12/24 10:22:52;;;;;;;9.17;6.23;;;8.00;99.90;;;;;;4999146;28;20455;-74
2021/12/24 10:25:25;;;;;;;15.97;9.80;;;8.00;99.90;;;;;;5029560;28;20482;-75
2021/12/24 10:27:50;;;;;;;29.30;14.67;;;8.00;99.90;;;;;;5012042;28;20463;-75
2021/12/24 10:30:31;;;;;;;35.50;20.90;;;8.00;99.90;;;;;;5030576;28;20462;-74
2021/12/24 10:33:06;;;;;;;39.27;23.40;;;8.10;99.90;;;;;;4997990;28;20446;-75
2021/12/24 10:35:32;;;;;;;25.10;16.77;;;8.10;99.90;;;;;;5017624;28;20462;-75
2021/12/24 10:38:17;;;;;;;27.70;13.40;;;8.10;99.90;;;;;;5015931;28;20454;-73
2021/12/24 10:40:49;;;;;;;11.67;7.40;;;8.10;99.90;;;;;;5015023;28;20239;-73
2021/12/24 10:43:33;;;;;;;37.60;20.47;;;8.10;99.90;;;;;;5031391;28;20455;-73
2021/12/24 10:46:09;;;;;;;27.63;15.53;;;8.10;99.90;;;;;;5012069;28;20483;-74
2021/12/24 10:48:35;;;;;;;11.60;6.47;;;8.10;99.90;;;;;;5014993;28;20970;-75
2021/12/24 10:51:06;;;;;;;7.27;4.80;;;8.10;99.90;;;;;;5013868;28;20451;-73
2021/12/24 10:54:05;;;;;;;10.33;5.23;;;8.20;99.90;;;;;;5014143;28;20216;-75
2021/12/24 10:56:31;;;;;;;5.10;3.90;;;8.20;99.90;;;;;;5014233;28;20451;-75
2021/12/24 10:58:57;;;;;;;8.80;5.17;;;8.20;99.90;;;;;;5014915;28;20466;-74
2021/12/24 11:01:22;;;;;;;6.57;4.17;;;8.20;99.90;;;;;;5014210;28;20212;-73
2021/12/24 11:03:49;;;;;;;7.77;5.30;;;8.20;99.90;;;;;;5014430;28;20989;-74
2021/12/24 11:06:15;;;;;;;9.20;5.97;;;8.20;99.90;;;;;;5015063;28;20331;-74
2021/12/24 11:08:42;;;;;;;7.23;5.20;;;8.20;99.90;;;;;;5011095;28;20998;-74
2021/12/24 11:11:11;;;;;;;9.63;6.10;;;8.20;99.90;;;;;;5023078;28;20477;-73
2021/12/24 11:13:45;;;;;;;9.20;6.60;;;8.20;99.90;;;;;;5034108;28;20565;-73
2021/12/24 11:16:15;;;;;;;10.67;7.67;;;8.20;99.90;;;;;;5034482;28;20836;-75
2021/12/24 11:18:46;;;;;;;13.30;8.77;;;8.20;99.90;;;;;;5034268;28;20466;-74
2021/12/24 11:21:20;;;;;;;15.80;9.73;;;8.20;99.90;;;;;;5051350;28;20466;-74
2021/12/24 11:23:46;;;;;;;16.87;12.00;;;8.20;99.90;;;;;;5039168;28;20825;-74
2021/12/24 11:26:12;;;;;;;15.20;10.93;;;8.20;99.90;;;;;;5032456;28;20502;-75
2021/12/24 11:28:39;;;;;;;18.47;11.07;;;8.20;99.90;;;;;;5031108;28;20483;-74
2021/12/24 11:31:07;;;;;;;18.50;12.53;;;8.20;99.90;;;;;;5015194;28;20236;-74
2021/12/24 11:33:36;;;;;;;21.90;11.00;;;8.20;99.90;;;;;;4998270;28;20485;-75
2021/12/24 11:36:06;;;;;;;34.97;14.20;;;8.20;99.90;;;;;;5014742;28;20470;-75
2021/12/24 11:38:35;;;;;;;25.33;11.47;;;8.20;99.90;;;;;;5032149;28;20451;-76
2021/12/24 11:41:02;;;;;;;19.33;11.03;;;8.20;99.90;;;;;;5031883;28;20459;-72
2021/12/24 11:43:31;;;;;;;13.60;8.10;;;8.30;99.90;;;;;;5012793;28;20463;-75
2021/12/24 11:45:59;;;;;;;11.17;7.10;;;8.30;99.90;;;;;;5013641;28;20462;-75
2021/12/24 11:48:32;;;;;;;9.47;5.53;;;8.30;99.90;;;;;;5014817;28;20471;-75
2021/12/24 11:51:03;;;;;;;8.27;6.00;;;8.30;99.90;;;;;;5014333;28;20471;-75
2021/12/24 11:53:30;;;;;;;9.70;6.10;;;8.30;99.90;;;;;;5013967;28;20513;-75
2021/12/24 11:56:04;;;;;;;6.97;5.63;;;8.30;99.90;;;;;;5035707;28;20530;-75
2021/12/24 11:58:32;;;;;;;8.87;5.33;;;8.30;99.90;;;;;;5011656;28;20467;-75
2021/12/24 12:01:04;;;;;;;10.93;6.40;;;8.30;99.90;;;;;;4996192;28;20445;-75
2021/12/24 12:03:34;;;;;;;9.33;5.57;;;8.30;99.90;;;;;;5029622;28;20451;-75
2021/12/24 12:06:04;;;;;;;15.67;6.20;;;8.30;99.90;;;;;;5025770;28;20522;-74
2021/12/24 12:08:33;;;;;;;10.07;6.77;;;8.30;99.90;;;;;;5011775;28;20462;-74
2021/12/24 12:11:15;;;;;;;8.50;6.03;;;8.40;99.90;;;;;;5028578;28;20501;-75
2021/12/24 12:13:43;;;;;;;9.40;5.90;;;8.40;99.90;;;;;;5004685;28;20498;-74
2021/12/24 12:16:22;;;;;;;8.00;5.70;;;8.40;99.90;;;;;;4997093;28;20455;-74
2021/12/24 12:19:08;;;;;;;9.37;5.70;;;8.40;99.90;;;;;;4993567;28;20968;-75
2021/12/24 12:21:37;;;;;;;9.07;5.70;;;8.40;99.90;;;;;;4993994;28;20547;-75
2021/12/24 12:26:43;;;;;;;9.53;6.70;;;8.50;99.90;;;;;;5030832;28;20475;-75
2021/12/24 12:29:27;;;;;;;8.10;7.13;;;8.40;99.90;;;;;;5008953;28;20460;-75
2021/12/24 12:32:01;;;;;;;11.43;7.60;;;8.50;99.90;;;;;;5029053;28;20451;-74
2021/12/24 12:34:48;;;;;;;17.00;9.80;;;8.40;99.90;;;;;;5013783;28;20891;-74
2021/12/24 12:37:24;;;;;;;15.20;8.77;;;8.50;99.90;;;;;;5008259;28;20463;-74
2021/12/24 12:40:01;;;;;;;16.70;10.27;;;8.50;99.90;;;;;;5016955;28;20477;-75
2021/12/24 12:42:50;;;;;;;12.07;8.20;;;8.50;99.90;;;;;;5024537;28;20466;-74
2021/12/24 12:45:42;;;;;;;14.47;8.20;;;8.50;99.90;;;;;;5008276;28;20513;-74
2021/12/24 12:48:10;;;;;;;15.40;11.30;;;8.50;99.90;;;;;;5025196;28;20458;-74
2021/12/24 12:50:37;;;;;;;18.37;11.67;;;8.50;99.90;;;;;;5022110;28;20461;-74
2021/12/24 12:53:22;;;;;;;14.47;8.73;;;8.50;99.90;;;;;;5008902;28;20455;-74
2021/12/24 12:55:49;;;;;;;10.57;7.43;;;8.50;99.90;;;;;;5007035;28;20974;-74
2021/12/24 12:58:19;;;;;;;13.47;7.60;;;8.60;99.90;;;;;;5009914;28;20459;-74
2021/12/24 13:01:05;;;;;;;17.03;9.33;;;8.60;99.90;;;;;;5025047;28;20454;-74
2021/12/24 13:03:33;;;;;;;22.43;13.97;;;8.60;99.90;;;;;;5015533;28;20507;-75
2021/12/24 13:06:04;;;;;;;27.07;15.23;;;8.60;99.90;;;;;;5009242;28;20468;-74
2021/12/24 13:08:36;;;;;;;19.37;11.13;;;8.60;99.90;;;;;;5013898;28;20462;-73
2021/12/24 13:11:08;;;;;;;15.23;9.87;;;8.60;99.90;;;;;;5022661;28;20466;-72
2021/12/24 13:13:57;;;;;;;10.80;8.50;;;8.60;99.90;;;;;;5026922;28;20459;-75
2021/12/24 13:16:24;;;;;;;7.90;6.93;;;8.60;99.90;;;;;;5028795;28;20462;-74
2021/12/24 13:18:57;;;;;;;6.37;4.97;;;8.60;99.90;;;;;;5020933;28;20986;-74
2021/12/24 13:22:27;;;;;;;5.33;4.80;;;8.70;99.90;;;;;;5000699;28;20492;-74
2021/12/24 13:24:24;;;;;;;4.03;3.60;;;8.70;99.90;;;;;;5022433;28;20477;-74
2021/12/24 13:26:50;;;;;;;4.07;3.70;;;8.70;99.90;;;;;;5007549;28;20467;-74
2021/12/24 13:29:23;;;;;;;4.60;4.07;;;8.70;99.90;;;;;;4992214;28;20601;-74
2021/12/24 13:31:54;;;;;;;7.07;5.73;;;8.70;99.90;;;;;;5016668;28;20319;-74
2021/12/24 13:34:22;;;;;;;5.13;4.10;;;8.70;99.90;;;;;;5009136;28;20467;-75
2021/12/24 13:36:47;;;;;;;6.80;4.80;;;8.70;99.90;;;;;;5006814;28;20534;-74
2021/12/24 13:39:16;;;;;;;4.43;4.03;;;8.70;99.90;;;;;;5009548;28;20555;-74
2021/12/24 13:41:45;;;;;;;4.70;3.80;;;8.70;99.90;;;;;;5006587;28;20223;-74
2021/12/24 13:44:29;;;;;;;5.53;4.10;;;8.70;99.90;;;;;;5007240;28;20546;-74
2021/12/24 13:47:15;;;;;;;5.00;3.83;;;8.70;99.90;;;;;;5003388;28;20461;-73
2021/12/24 13:50:30;;;;;;;3.20;2.67;;;8.70;99.90;;;;;;5011472;28;20459;-74
2021/12/24 13:55:47;;;;;;;3.70;3.27;;;8.70;99.90;;;;;;5023264;28;21000;-73
2021/12/24 13:58:15;;;;;;;4.20;3.37;;;8.70;99.90;;;;;;5009556;28;20455;-73
2021/12/24 14:00:48;;;;;;;5.70;3.27;;;8.80;99.90;;;;;;5006783;28;20451;-73
2021/12/24 14:03:14;;;;;;;3.93;3.10;;;8.80;99.90;;;;;;5012072;28;20477;-75
2021/12/24 14:06:02;;;;;;;3.70;2.97;;;8.80;99.90;;;;;;5023162;28;20483;-74
2021/12/24 14:08:30;;;;;;;3.30;3.00;;;8.80;99.90;;;;;;5009013;28;20460;-74
2021/12/24 14:11:30;;;;;;;4.00;3.03;;;8.80;99.90;;;;;;5003194;28;20537;-73
2021/12/24 14:13:59;;;;;;;7.70;3.80;;;8.80;99.90;;;;;;5026374;28;20898;-74
2021/12/24 14:19:13;;;;;;;4.57;3.40;;;8.80;99.90;;;;;;5008575;28;20459;-74
2021/12/24 14:21:45;;;;;;;3.97;3.10;;;8.80;99.90;;;;;;5023214;28;20459;-75
2021/12/24 14:24:35;;;;;;;4.00;3.50;;;8.80;99.90;;;;;;5026093;28;20520;-75
2021/12/24 14:27:02;;;;;;;4.87;3.67;;;8.80;99.90;;;;;;5023929;28;20941;-74
2021/12/24 14:29:38;;;;;;;7.07;5.20;;;8.80;99.90;;;;;;4992225;28;20455;-74
2021/12/24 14:32:05;;;;;;;5.60;4.00;;;8.80;99.90;;;;;;5006634;28;20454;-73
2021/12/24 14:34:37;;;;;;;4.87;4.20;;;8.80;99.90;;;;;;5008997;28;20829;-74
2021/12/24 14:37:18;;;;;;;5.00;4.17;;;8.80;99.90;;;;;;5008697;28;20466;-75
2021/12/24 14:40:08;;;;;;;5.37;4.53;;;8.80;99.90;;;;;;5007039;28;20475;-74
2021/12/24 14:42:47;;;;;;;6.43;4.10;;;8.80;99.90;;;;;;5000468;28;20478;-75
2021/12/24 14:45:20;;;;;;;6.17;3.80;;;8.80;99.90;;;;;;5008018;28;20483;-75
2021/12/24 14:48:01;;;;;;;4.40;3.73;;;8.90;99.90;;;;;;5006832;28;20483;-74
2021/12/24 14:50:29;;;;;;;4.17;3.27;;;8.80;99.90;;;;;;5025917;28;20455;-75
2021/12/24 14:53:31;;;;;;;48.90;30.30;;;8.90;99.90;;;;;;5005954;28;20447;-74